Time;durP1;ratioP1;P1;durP2;ratioP2;P2;SDS_P1;SDS_P2;PMS_P1;PMS_P2;Temp;Humidity;BMP_temperature;BMP_pressure;BME280_temperature;BME280_humidity;BME280_pressure;Samples;Min_cycle;Max_cycle;Signal;HPM_P1;HPM_P2
2022/08/17 00:00:31;;;;;;;8.05;7.35;;;25.90;57.30;;;;;;5052065;28;20643;-55
2022/08/17 00:03:01;;;;;;;8.02;7.43;;;25.90;57.30;;;;;;5051586;28;20175;-56
2022/08/17 00:05:27;;;;;;;7.40;6.80;;;25.90;57.30;;;;;;5051157;28;20297;-51
2022/08/17 00:07:53;;;;;;;8.23;7.53;;;25.90;57.40;;;;;;5051524;28;20199;-50
2022/08/17 00:10:19;;;;;;;8.35;7.65;;;25.90;57.30;;;;;;5051996;28;20199;-50
2022/08/17 00:12:44;;;;;;;8.30;7.70;;;25.90;57.30;;;;;;5050975;28;20182;-48
2022/08/17 00:15:10;;;;;;;8.05;7.35;;;25.90;57.30;;;;;;5050597;28;20214;-50
2022/08/17 00:17:36;;;;;;;8.15;7.57;;;25.90;57.30;;;;;;5051865;28;20179;-54
2022/08/17 00:20:02;;;;;;;8.00;7.40;;;25.90;57.30;;;;;;5051242;28;20537;-50
2022/08/17 00:22:28;;;;;;;8.02;7.43;;;25.90;57.30;;;;;;5051661;28;20167;-51
2022/08/17 00:24:53;;;;;;;7.38;6.88;;;25.80;57.20;;;;;;5051785;28;20269;-50
2022/08/17 00:27:19;;;;;;;8.10;7.50;;;25.80;57.20;;;;;;5051223;28;20529;-49
2022/08/17 00:29:44;;;;;;;8.02;7.43;;;25.80;57.30;;;;;;5051537;28;20667;-52
2022/08/17 00:32:11;;;;;;;7.45;6.95;;;25.80;57.30;;;;;;5052411;28;20190;-49
2022/08/17 00:34:37;;;;;;;8.00;7.40;;;25.80;57.20;;;;;;5051011;28;20194;-49
2022/08/17 00:37:03;;;;;;;8.07;7.47;;;25.80;57.20;;;;;;5051466;28;20198;-49
2022/08/17 00:39:28;;;;;;;7.75;7.25;;;25.80;57.30;;;;;;5050886;28;20171;-52
2022/08/17 00:41:54;;;;;;;7.63;6.93;;;25.80;57.30;;;;;;5053082;28;20186;-50
2022/08/17 00:44:19;;;;;;;7.68;7.18;;;25.80;57.30;;;;;;5055408;28;20552;-48
2022/08/17 00:46:46;;;;;;;7.50;6.90;;;25.80;57.30;;;;;;5054748;28;20175;-54
2022/08/17 00:49:12;;;;;;;7.50;6.82;;;25.80;57.30;;;;;;5055696;28;20180;-48
2022/08/17 00:52:05;;;;;;;7.68;7.07;;;25.80;57.30;;;;;;5055252;28;20217;-52
2022/08/17 00:54:33;;;;;;;7.38;6.88;;;25.80;57.30;;;;;;5053590;28;20614;-48
2022/08/17 00:57:05;;;;;;;8.20;7.50;;;25.80;57.30;;;;;;5055252;28;20175;-50
2022/08/17 00:59:35;;;;;;;7.45;6.95;;;25.80;57.30;;;;;;5053934;28;20171;-50
2022/08/17 01:02:01;;;;;;;8.18;7.57;;;25.80;57.30;;;;;;5053004;28;20597;-53
2022/08/17 01:04:27;;;;;;;8.20;7.53;;;25.80;57.30;;;;;;5054743;28;20723;-49
2022/08/17 01:06:52;;;;;;;8.20;7.60;;;25.80;57.30;;;;;;5053552;28;20221;-51
2022/08/17 01:09:18;;;;;;;7.28;6.78;;;25.80;57.30;;;;;;5053019;28;20178;-50
2022/08/17 01:11:44;;;;;;;7.68;7.07;;;25.80;57.30;;;;;;5054890;28;20187;-50
2022/08/17 01:14:10;;;;;;;7.30;6.70;;;25.80;57.30;;;;;;5053795;28;20171;-53
2022/08/17 01:16:36;;;;;;;7.55;7.05;;;25.80;57.30;;;;;;5054186;28;20642;-54
2022/08/17 01:19:04;;;;;;;7.55;7.03;;;25.80;57.30;;;;;;5053643;28;20179;-54
2022/08/17 01:21:30;;;;;;;8.10;7.50;;;25.70;57.30;;;;;;5053444;28;20250;-54
2022/08/17 01:23:55;;;;;;;7.85;7.15;;;25.70;57.30;;;;;;5054311;28;20313;-54
2022/08/17 01:26:21;;;;;;;8.20;7.53;;;25.80;57.30;;;;;;5053344;28;20548;-52
2022/08/17 01:28:46;;;;;;;7.88;7.28;;;25.70;57.30;;;;;;5053856;28;20167;-52
2022/08/17 01:31:12;;;;;;;7.90;7.30;;;25.80;57.30;;;;;;5053385;28;20183;-52
2022/08/17 01:33:38;;;;;;;7.60;7.00;;;25.70;57.30;;;;;;5054766;28;20172;-48
2022/08/17 01:36:05;;;;;;;8.43;7.68;;;25.80;57.30;;;;;;5053869;28;20523;-50
2022/08/17 01:38:31;;;;;;;7.85;7.13;;;25.70;57.30;;;;;;5054648;28;20201;-47
2022/08/17 01:41:01;;;;;;;8.13;7.53;;;25.70;57.90;;;;;;5054389;28;20568;-51
2022/08/17 01:43:30;;;;;;;7.60;7.10;;;25.70;57.30;;;;;;5053653;28;20186;-54
2022/08/17 01:45:58;;;;;;;7.65;7.15;;;25.80;57.30;;;;;;5053021;28;20227;-52
2022/08/17 01:48:28;;;;;;;8.05;7.40;;;25.70;57.30;;;;;;5054453;28;20186;-50
2022/08/17 01:50:53;;;;;;;7.95;7.25;;;25.70;57.30;;;;;;5052263;28;20236;-53
2022/08/17 01:53:24;;;;;;;7.63;7.03;;;25.70;57.30;;;;;;5053658;28;20641;-53
2022/08/17 01:55:52;;;;;;;7.57;7.03;;;25.70;57.40;;;;;;5052850;28;20579;-52
2022/08/17 01:58:18;;;;;;;8.25;7.65;;;25.70;57.30;;;;;;5052055;28;20582;-52
2022/08/17 02:00:44;;;;;;;7.47;6.93;;;25.80;57.40;;;;;;5053760;28;20273;-50
2022/08/17 02:03:09;;;;;;;7.40;6.90;;;25.70;57.30;;;;;;5054058;28;20180;-50
2022/08/17 02:05:35;;;;;;;7.82;7.25;;;25.70;57.30;;;;;;5053224;28;20306;-51
2022/08/17 02:08:01;;;;;;;7.45;6.95;;;25.70;57.30;;;;;;5053752;28;20172;-53
2022/08/17 02:10:28;;;;;;;7.38;6.78;;;25.70;57.30;;;;;;5053863;28;20234;-50
2022/08/17 02:12:54;;;;;;;7.80;7.22;;;25.70;57.30;;;;;;5052897;28;20261;-49
2022/08/17 02:15:20;;;;;;;8.32;7.65;;;25.70;57.30;;;;;;5053755;28;20186;-55
2022/08/17 02:17:45;;;;;;;7.88;7.15;;;25.70;57.30;;;;;;5053723;28;20176;-55
2022/08/17 02:20:11;;;;;;;7.95;7.38;;;25.70;57.30;;;;;;5053323;28;20191;-55
2022/08/17 02:22:37;;;;;;;8.02;7.43;;;25.70;57.30;;;;;;5053435;28;20175;-51
2022/08/17 02:25:03;;;;;;;7.70;7.10;;;25.70;57.30;;;;;;5052261;28;20301;-53
2022/08/17 02:27:29;;;;;;;7.68;7.07;;;25.70;57.30;;;;;;5053074;28;20201;-51
2022/08/17 02:29:54;;;;;;;7.93;7.32;;;25.70;57.30;;;;;;5052827;28;20700;-51
2022/08/17 02:32:22;;;;;;;7.85;7.18;;;25.70;57.30;;;;;;5052246;28;20254;-53
2022/08/17 02:34:48;;;;;;;7.68;7.18;;;25.70;57.40;;;;;;5052895;28;20191;-54
2022/08/17 02:37:16;;;;;;;7.43;6.93;;;25.70;57.40;;;;;;5053167;28;20240;-55
2022/08/17 02:39:43;;;;;;;8.68;8.02;;;25.70;57.30;;;;;;5052288;28;20258;-54
2022/08/17 02:42:08;;;;;;;7.88;7.28;;;25.70;57.30;;;;;;5052742;28;20231;-48
2022/08/17 02:44:34;;;;;;;8.32;7.72;;;25.70;57.40;;;;;;5052915;28;20280;-55
2022/08/17 02:47:00;;;;;;;8.52;7.82;;;25.70;57.30;;;;;;5051983;28;20233;-55
2022/08/17 02:49:25;;;;;;;8.32;7.70;;;25.70;57.30;;;;;;5052838;28;20695;-55
2022/08/17 02:51:51;;;;;;;7.55;6.95;;;25.60;57.30;;;;;;5052594;28;20263;-56
2022/08/17 02:54:16;;;;;;;8.00;7.35;;;25.70;57.40;;;;;;5051830;28;20179;-55
2022/08/17 02:56:42;;;;;;;7.95;7.35;;;25.70;57.40;;;;;;5052911;28;20183;-54
2022/08/17 02:59:07;;;;;;;7.88;7.28;;;25.70;57.40;;;;;;5052704;28;20174;-55
2022/08/17 03:01:33;;;;;;;7.43;6.93;;;25.70;57.40;;;;;;5051846;28;20347;-52
2022/08/17 03:03:59;;;;;;;7.55;7.05;;;25.60;57.30;;;;;;5052108;28;20222;-54
2022/08/17 03:06:25;;;;;;;8.50;7.82;;;25.60;57.30;;;;;;5051462;28;20243;-55
2022/08/17 03:08:51;;;;;;;7.85;7.15;;;25.70;57.40;;;;;;5051612;28;20209;-55
2022/08/17 03:11:17;;;;;;;7.45;6.95;;;25.70;57.40;;;;;;5052269;28;20235;-55
2022/08/17 03:13:42;;;;;;;8.02;7.35;;;25.60;57.30;;;;;;5052610;28;20194;-56
2022/08/17 03:16:08;;;;;;;8.07;7.47;;;25.60;57.30;;;;;;5051811;28;20202;-55
2022/08/17 03:18:34;;;;;;;7.38;6.88;;;25.60;57.30;;;;;;5052185;28;20762;-55
2022/08/17 03:21:00;;;;;;;7.97;7.40;;;25.60;57.30;;;;;;5052021;28;20304;-48
2022/08/17 03:23:25;;;;;;;7.35;6.85;;;25.60;57.30;;;;;;5051463;28;20179;-49
2022/08/17 03:25:51;;;;;;;7.72;7.22;;;25.60;57.30;;;;;;5051867;28;20207;-55
2022/08/17 03:28:17;;;;;;;7.28;6.85;;;25.60;57.30;;;;;;5051644;28;20183;-54
2022/08/17 03:30:42;;;;;;;7.95;7.25;;;25.60;57.30;;;;;;5052518;28;20187;-54
2022/08/17 03:33:11;;;;;;;7.90;7.40;;;25.60;57.30;;;;;;5051992;28;20167;-50
2022/08/17 03:35:39;;;;;;;7.90;7.32;;;25.60;57.30;;;;;;5051363;28;20183;-54
2022/08/17 03:38:04;;;;;;;7.90;7.30;;;25.60;57.30;;;;;;5051799;28;20187;-54
2022/08/17 03:40:30;;;;;;;8.73;8.00;;;25.60;57.30;;;;;;5051828;28;20175;-55
2022/08/17 03:42:56;;;;;;;7.57;7.00;;;25.60;57.30;;;;;;5051446;28;20175;-53
2022/08/17 03:56:41;;;;;;;7.57;7.07;;;25.60;57.40;;;;;;5051170;28;20510;-54
2022/08/17 03:59:15;;;;;;;8.07;7.47;;;25.60;57.40;;;;;;5051387;28;20680;-48
2022/08/17 04:01:44;;;;;;;7.95;7.35;;;25.60;57.30;;;;;;5051801;28;20224;-53
2022/08/17 04:04:10;;;;;;;7.90;7.22;;;25.60;58.00;;;;;;5049165;28;20653;-56
2022/08/17 04:06:35;;;;;;;7.50;6.90;;;25.60;57.30;;;;;;5062827;28;20645;-54
2022/08/17 04:09:01;;;;;;;7.75;7.25;;;25.60;57.30;;;;;;5051396;28;20598;-54
2022/08/17 04:11:26;;;;;;;8.13;7.53;;;25.60;57.30;;;;;;5050676;28;20563;-53
2022/08/17 04:13:52;;;;;;;8.25;7.65;;;25.60;57.30;;;;;;5051231;28;20163;-54
2022/08/17 04:16:17;;;;;;;7.35;6.80;;;25.60;57.30;;;;;;5051178;28;20254;-52
2022/08/17 04:18:43;;;;;;;7.03;6.53;;;25.60;57.30;;;;;;5050920;28;20179;-54
2022/08/17 04:21:08;;;;;;;7.13;6.55;;;25.60;57.40;;;;;;5051595;28;20190;-55
2022/08/17 04:23:35;;;;;;;7.30;6.80;;;25.60;57.30;;;;;;5050113;28;20190;-54
2022/08/17 04:26:01;;;;;;;7.55;6.88;;;25.60;57.30;;;;;;5050402;28;20207;-52
2022/08/17 04:28:26;;;;;;;7.05;6.57;;;25.60;57.40;;;;;;5051102;28;20266;-54
2022/08/17 04:30:52;;;;;;;7.30;6.80;;;25.60;57.50;;;;;;5051436;28;20235;-53
2022/08/17 04:33:19;;;;;;;7.25;6.75;;;25.50;57.60;;;;;;5050864;28;20175;-54
2022/08/17 04:35:52;;;;;;;7.80;7.20;;;25.60;57.40;;;;;;5051245;28;20175;-53
2022/08/17 04:38:20;;;;;;;8.32;7.65;;;25.60;57.50;;;;;;5051348;28;20179;-55
2022/08/17 04:43:31;;;;;;;7.45;6.95;;;25.50;57.30;;;;;;5051441;28;20186;-53
2022/08/17 04:46:01;;;;;;;7.22;6.72;;;25.50;57.30;;;;;;5050474;28;20215;-52
2022/08/17 04:48:30;;;;;;;7.32;6.82;;;25.50;57.30;;;;;;5051120;28;20629;-48
2022/08/17 04:50:56;;;;;;;7.80;7.20;;;25.60;57.30;;;;;;5050949;28;20191;-49
2022/08/17 04:53:22;;;;;;;7.43;6.93;;;25.60;57.30;;;;;;5049097;28;20676;-48
2022/08/17 04:55:48;;;;;;;8.05;7.43;;;25.50;57.30;;;;;;5050926;28;20176;-53
2022/08/17 04:58:13;;;;;;;7.13;6.63;;;25.50;57.30;;;;;;5049728;28;20183;-52
2022/08/17 05:00:39;;;;;;;7.53;6.95;;;25.50;57.30;;;;;;5050638;28;20179;-47
2022/08/17 05:03:04;;;;;;;7.55;7.05;;;25.50;57.30;;;;;;5051165;28;20248;-51
2022/08/17 05:05:32;;;;;;;7.50;6.93;;;25.50;57.30;;;;;;5050994;28;20211;-53
2022/08/17 05:07:59;;;;;;;7.60;7.00;;;25.50;57.30;;;;;;5050125;28;20230;-52
2022/08/17 05:10:28;;;;;;;7.32;6.82;;;25.50;57.30;;;;;;5051193;28;20645;-54
2022/08/17 05:13:04;;;;;;;6.72;6.22;;;25.50;57.30;;;;;;5051021;28;20262;-54
2022/08/17 05:15:30;;;;;;;7.57;6.97;;;25.50;57.30;;;;;;5050514;28;20190;-50
2022/08/17 05:17:55;;;;;;;7.50;6.90;;;25.50;57.30;;;;;;5051020;28;20179;-55
2022/08/17 05:20:21;;;;;;;7.45;6.60;;;25.50;57.30;;;;;;5050895;28;20644;-49
2022/08/17 05:22:51;;;;;;;7.50;6.90;;;25.50;57.30;;;;;;5050554;28;20461;-54
2022/08/17 05:25:21;;;;;;;6.82;6.32;;;25.50;57.20;;;;;;5051040;28;20253;-53
2022/08/17 05:27:46;;;;;;;7.07;6.63;;;25.50;57.20;;;;;;5050165;28;20259;-52
2022/08/17 05:30:13;;;;;;;7.30;6.80;;;25.50;57.20;;;;;;5054476;28;20195;-49
2022/08/17 05:32:38;;;;;;;7.65;7.15;;;25.50;57.20;;;;;;5054346;28;20243;-48
2022/08/17 05:35:04;;;;;;;7.88;7.28;;;25.50;57.10;;;;;;5053446;28;21025;-54
2022/08/17 05:37:30;;;;;;;8.10;7.45;;;25.50;57.20;;;;;;5054367;28;20175;-55
2022/08/17 05:39:55;;;;;;;7.70;7.10;;;25.50;57.10;;;;;;5054108;28;20620;-48
2022/08/17 05:42:21;;;;;;;7.55;7.05;;;25.50;57.10;;;;;;5053373;28;20605;-49
2022/08/17 05:44:46;;;;;;;7.15;6.65;;;25.50;57.10;;;;;;5053874;28;20209;-49
2022/08/17 05:47:12;;;;;;;7.68;7.18;;;25.50;57.20;;;;;;5054050;28;20171;-52
2022/08/17 05:49:37;;;;;;;7.40;6.90;;;25.50;57.20;;;;;;5053226;28;20266;-49
2022/08/17 05:52:15;;;;;;;7.10;6.63;;;25.50;57.20;;;;;;5053966;28;20175;-48
2022/08/17 05:54:53;;;;;;;7.50;7.00;;;25.50;57.90;;;;;;5054121;28;20201;-49
2022/08/17 05:57:42;;;;;;;7.65;7.15;;;25.50;57.90;;;;;;5051941;28;20228;-50
2022/08/17 06:00:16;;;;;;;7.40;6.85;;;25.50;57.30;;;;;;5052375;28;20610;-53
2022/08/17 06:03:07;;;;;;;7.15;6.65;;;25.50;57.30;;;;;;5052960;28;20170;-55
2022/08/17 06:05:48;;;;;;;7.40;6.88;;;25.50;57.30;;;;;;5053667;28;20574;-51
2022/08/17 06:08:37;;;;;;;7.20;6.70;;;25.50;57.30;;;;;;5053673;28;20187;-53
2022/08/17 06:11:38;;;;;;;6.85;6.40;;;25.50;57.30;;;;;;5051697;28;20256;-55
2022/08/17 06:14:15;;;;;;;7.47;6.88;;;25.50;57.30;;;;;;5053303;28;20179;-51
2022/08/17 06:16:43;;;;;;;7.35;6.82;;;25.50;57.30;;;;;;5053723;28;20175;-52
2022/08/17 06:19:29;;;;;;;8.00;7.40;;;25.50;57.20;;;;;;5051719;28;20232;-52
2022/08/17 06:21:55;;;;;;;6.85;6.35;;;25.50;57.20;;;;;;5052555;28;20179;-53
2022/08/17 06:24:32;;;;;;;7.70;7.20;;;25.60;57.30;;;;;;5051263;28;20512;-55
2022/08/17 06:27:05;;;;;;;7.70;7.10;;;25.50;57.30;;;;;;5053267;28;20187;-50
2022/08/17 06:29:43;;;;;;;7.35;6.68;;;25.50;57.30;;;;;;5052489;28;20182;-53
2022/08/17 06:32:09;;;;;;;7.97;7.38;;;25.50;57.30;;;;;;5051717;28;20602;-55
2022/08/17 06:34:36;;;;;;;7.90;7.25;;;25.50;57.30;;;;;;5052052;28;20187;-52
2022/08/17 06:37:17;;;;;;;7.53;6.93;;;25.50;57.30;;;;;;5053333;28;20183;-53
2022/08/17 06:39:47;;;;;;;7.28;6.78;;;25.50;57.30;;;;;;5052635;28;20535;-52
2022/08/17 06:42:30;;;;;;;7.15;6.57;;;25.50;57.30;;;;;;5052148;28;20210;-54
2022/08/17 06:45:01;;;;;;;7.65;7.05;;;25.50;57.30;;;;;;5051785;28;20211;-54
2022/08/17 06:47:29;;;;;;;8.05;7.45;;;25.50;57.40;;;;;;5052423;28;20194;-63
2022/08/17 06:49:56;;;;;;;7.40;6.80;;;25.60;57.50;;;;;;5051411;28;20207;-60
2022/08/17 06:52:28;;;;;;;8.10;6.85;;;25.60;57.60;;;;;;5052318;28;20228;-61
2022/08/17 06:54:56;;;;;;;7.80;6.97;;;25.60;57.50;;;;;;5051460;28;20179;-61
2022/08/17 06:57:23;;;;;;;7.70;6.97;;;25.70;57.80;;;;;;5052874;28;20202;-62
2022/08/17 07:00:00;;;;;;;7.65;6.90;;;25.70;57.40;;;;;;5050723;28;20171;-62
2022/08/17 07:03:05;;;;;;;7.65;6.95;;;25.70;57.90;;;;;;5051269;28;20574;-62
2022/08/17 07:05:41;;;;;;;8.63;7.00;;;25.70;57.70;;;;;;5052517;28;20689;-62
2022/08/17 07:08:32;;;;;;;7.43;6.60;;;25.70;57.80;;;;;;5050502;28;20278;-61
2022/08/17 07:11:01;;;;;;;7.78;7.07;;;25.70;57.70;;;;;;5051085;28;20171;-60
2022/08/17 07:13:37;;;;;;;7.95;7.25;;;25.70;57.70;;;;;;5050402;28;20680;-60
2022/08/17 07:16:12;;;;;;;7.65;6.95;;;25.70;57.70;;;;;;5050976;28;20193;-60
2022/08/17 07:18:37;;;;;;;7.80;7.00;;;25.70;57.80;;;;;;5051060;28;20166;-61
2022/08/17 07:21:09;;;;;;;9.10;7.93;;;25.70;57.70;;;;;;5051432;28;20240;-61
2022/08/17 07:23:50;;;;;;;8.82;7.65;;;25.70;57.80;;;;;;5050909;28;20270;-61
2022/08/17 07:26:16;;;;;;;8.00;7.30;;;25.70;57.90;;;;;;5051039;28;20226;-60
2022/08/17 07:28:41;;;;;;;8.80;7.97;;;25.80;58.00;;;;;;5050216;28;20167;-60
2022/08/17 07:31:07;;;;;;;8.88;7.95;;;25.90;58.30;;;;;;5050889;28;20583;-61
2022/08/17 07:33:33;;;;;;;9.43;8.25;;;25.80;58.10;;;;;;5050752;28;20608;-60
2022/08/17 07:36:00;;;;;;;8.75;7.85;;;25.80;58.80;;;;;;5051145;28;20183;-62
2022/08/17 07:38:27;;;;;;;11.07;8.20;;;25.80;58.30;;;;;;5050597;28;20179;-60
2022/08/17 07:40:56;;;;;;;11.70;8.18;;;25.80;58.80;;;;;;5051815;28;20255;-60
2022/08/17 07:43:26;;;;;;;9.85;8.18;;;25.80;58.30;;;;;;5051301;28;20182;-61
2022/08/17 07:48:37;;;;;;;8.77;7.82;;;25.80;58.10;;;;;;5051119;28;20228;-61
2022/08/17 07:51:17;;;;;;;13.27;8.73;;;25.90;58.30;;;;;;5050109;28;20171;-61
2022/08/17 07:53:44;;;;;;;12.98;8.88;;;25.90;58.40;;;;;;5052111;28;20206;-62
2022/08/17 07:56:09;;;;;;;11.40;8.32;;;25.90;58.40;;;;;;5051309;28;20290;-61
2022/08/17 07:58:35;;;;;;;10.20;8.15;;;25.90;58.30;;;;;;5051828;28;20554;-62
2022/08/17 08:01:09;;;;;;;10.07;7.85;;;25.90;58.30;;;;;;5051820;28;20182;-61
2022/08/17 08:03:42;;;;;;;10.38;8.32;;;25.90;58.40;;;;;;5051304;28;20183;-62
2022/08/17 08:06:19;;;;;;;14.57;8.52;;;25.90;58.40;;;;;;5049950;28;20239;-62
2022/08/17 08:08:49;;;;;;;10.07;8.02;;;26.00;58.50;;;;;;5051515;28;20239;-64
2022/08/17 08:11:27;;;;;;;10.60;7.55;;;25.90;58.40;;;;;;5049565;28;20698;-64
2022/08/17 08:13:52;;;;;;;10.00;9.05;;;26.00;58.50;;;;;;5050159;28;20175;-65
2022/08/17 08:16:23;;;;;;;13.80;11.95;;;26.00;58.50;;;;;;5051453;28;20179;-63
2022/08/17 08:18:50;;;;;;;12.05;10.85;;;25.90;58.10;;;;;;5050980;28;20175;-63
2022/08/17 08:21:46;;;;;;;17.17;14.85;;;25.90;58.00;;;;;;5054579;28;20194;-64
2022/08/17 08:24:23;;;;;;;15.43;13.82;;;25.80;57.70;;;;;;5051906;28;20171;-62
2022/08/17 08:27:06;;;;;;;16.25;14.65;;;25.80;57.30;;;;;;5071292;28;20693;-62
2022/08/17 08:29:54;;;;;;;16.70;15.18;;;25.80;57.20;;;;;;5061515;28;20186;-62
2022/08/17 08:32:45;;;;;;;16.05;14.52;;;25.90;57.30;;;;;;5049399;28;20641;-62
2022/08/17 08:35:29;;;;;;;14.85;13.38;;;25.90;57.20;;;;;;5051982;28;20521;-62
2022/08/17 08:38:07;;;;;;;15.77;14.20;;;25.90;57.80;;;;;;5034001;28;20192;-62
2022/08/17 08:40:44;;;;;;;15.27;13.98;;;25.90;57.10;;;;;;5050173;28;20274;-63
2022/08/17 08:43:37;;;;;;;15.48;13.93;;;25.90;57.00;;;;;;5051663;28;20183;-63
2022/08/17 08:46:24;;;;;;;15.88;14.27;;;26.00;57.00;;;;;;5050390;28;20210;-64
2022/08/17 08:49:08;;;;;;;15.48;13.88;;;26.00;57.00;;;;;;5049824;28;20179;-64
2022/08/17 08:51:45;;;;;;;14.68;13.18;;;26.00;57.00;;;;;;5050045;28;20175;-64
2022/08/17 08:54:53;;;;;;;14.48;13.02;;;26.00;57.00;;;;;;5053517;28;20301;-64
2022/08/17 08:57:21;;;;;;;15.73;14.10;;;26.00;57.20;;;;;;5071410;28;20167;-64
2022/08/17 09:00:13;;;;;;;14.32;12.88;;;26.10;57.30;;;;;;5070407;28;20224;-63
2022/08/17 09:03:16;;;;;;;15.45;13.85;;;26.10;57.50;;;;;;5069944;28;20209;-63
2022/08/17 09:05:59;;;;;;;16.67;15.00;;;26.10;57.30;;;;;;5074802;28;20330;-64
2022/08/17 09:08:42;;;;;;;14.18;12.88;;;26.20;57.60;;;;;;5073712;28;20183;-64
2022/08/17 09:11:29;;;;;;;14.70;12.82;;;26.20;57.40;;;;;;5074861;28;20273;-64
2022/08/17 09:14:20;;;;;;;14.70;13.27;;;26.20;57.10;;;;;;5074178;28;20181;-65
2022/08/17 09:16:56;;;;;;;13.30;11.98;;;26.30;57.10;;;;;;5073395;28;20463;-65
2022/08/17 09:19:37;;;;;;;13.82;12.63;;;26.30;56.90;;;;;;5073432;28;20214;-64
2022/08/17 09:22:24;;;;;;;13.15;11.95;;;26.30;56.70;;;;;;5073760;28;20617;-64
2022/08/17 09:24:59;;;;;;;13.55;12.10;;;26.30;56.80;;;;;;5073341;28;20218;-64
2022/08/17 09:27:51;;;;;;;13.20;11.93;;;26.30;56.70;;;;;;5072788;28;20491;-64
2022/08/17 09:30:18;;;;;;;12.73;11.73;;;26.30;56.70;;;;;;5054986;28;20227;-64
2022/08/17 09:32:48;;;;;;;12.35;11.10;;;26.30;56.70;;;;;;5054578;28;20691;-64
2022/08/17 09:35:18;;;;;;;12.55;11.38;;;26.30;56.80;;;;;;5059004;28;20579;-64
2022/08/17 09:38:09;;;;;;;12.10;10.93;;;26.30;56.90;;;;;;5054565;28;20256;-63
2022/08/17 09:40:47;;;;;;;14.50;13.02;;;26.30;57.00;;;;;;5053275;28;20190;-63
2022/08/17 09:43:35;;;;;;;14.95;13.18;;;26.30;57.20;;;;;;5037682;28;20262;-64
2022/08/17 09:46:10;;;;;;;16.58;14.98;;;26.30;57.10;;;;;;5037925;28;20331;-65
2022/08/17 09:48:49;;;;;;;15.63;14.13;;;26.20;56.90;;;;;;5052203;28;20194;-64
2022/08/17 09:51:20;;;;;;;16.20;14.70;;;26.20;57.00;;;;;;5054466;28;20178;-64
2022/08/17 09:53:45;;;;;;;15.10;13.70;;;26.20;56.90;;;;;;5053359;28;20233;-64
2022/08/17 09:56:48;;;;;;;14.43;12.95;;;26.20;57.00;;;;;;5052706;28;20580;-63
2022/08/17 09:59:43;;;;;;;16.38;14.48;;;26.20;56.90;;;;;;5054547;28;20190;-64
2022/08/17 10:02:39;;;;;;;14.10;12.80;;;26.20;56.80;;;;;;5052557;28;20659;-64
2022/08/17 10:05:45;;;;;;;14.60;13.20;;;26.20;56.80;;;;;;5054029;28;20222;-63
2022/08/17 10:08:22;;;;;;;14.63;13.18;;;26.20;56.80;;;;;;5054227;28;20630;-64
2022/08/17 10:10:58;;;;;;;17.13;13.80;;;26.20;56.70;;;;;;5053652;28;20194;-65
2022/08/17 10:13:37;;;;;;;15.23;13.73;;;26.20;56.60;;;;;;5053123;28;20236;-66
2022/08/17 10:16:03;;;;;;;16.30;14.90;;;26.20;56.70;;;;;;5052255;28;20236;-65
2022/08/17 10:18:39;;;;;;;17.25;15.50;;;26.30;56.80;;;;;;5053804;28;20171;-66
2022/08/17 10:26:59;;;;;;;16.83;15.15;;;26.20;56.60;;;;;;5040482;28;20664;-64
2022/08/17 10:29:41;;;;;;;16.65;14.85;;;26.20;56.60;;;;;;5047230;28;20182;-63
2022/08/17 10:32:09;;;;;;;21.25;15.48;;;26.20;56.70;;;;;;5073000;28;20182;-66
2022/08/17 10:34:45;;;;;;;21.42;14.05;;;26.20;56.80;;;;;;5072432;28;20549;-64
2022/08/17 10:37:16;;;;;;;16.33;14.82;;;26.20;56.90;;;;;;5073154;28;20547;-65
2022/08/17 10:39:52;;;;;;;15.43;13.90;;;26.20;56.80;;;;;;5072837;28;20182;-65
2022/08/17 10:42:32;;;;;;;15.85;14.23;;;26.20;56.90;;;;;;5072562;28;20481;-65
2022/08/17 10:45:05;;;;;;;17.13;15.43;;;26.20;56.80;;;;;;5071773;28;20251;-65
2022/08/17 10:48:02;;;;;;;16.40;14.75;;;26.20;56.80;;;;;;5072279;28;20197;-65
2022/08/17 10:51:04;;;;;;;16.13;14.63;;;26.20;56.90;;;;;;5070414;28;20182;-64
2022/08/17 10:53:30;;;;;;;15.90;14.38;;;26.20;57.00;;;;;;5072724;28;20178;-65
2022/08/17 10:56:10;;;;;;;17.10;14.88;;;26.20;57.10;;;;;;5073253;28;20178;-63
2022/08/17 10:58:57;;;;;;;17.45;15.60;;;26.20;57.10;;;;;;5072852;28;20174;-65
2022/08/17 11:01:31;;;;;;;16.92;15.13;;;26.20;57.30;;;;;;5073457;28;20178;-65
2022/08/17 11:04:20;;;;;;;17.33;15.52;;;26.20;57.40;;;;;;5073183;28;20181;-64
2022/08/17 11:07:10;;;;;;;16.67;15.13;;;26.20;57.40;;;;;;5071146;28;20234;-64
2022/08/17 11:10:04;;;;;;;17.08;15.48;;;26.10;57.20;;;;;;5073252;28;20174;-64
2022/08/17 11:12:46;;;;;;;14.77;13.50;;;26.10;57.10;;;;;;5070800;28;20285;-64
2022/08/17 11:15:23;;;;;;;18.45;16.65;;;26.10;57.00;;;;;;5073340;28;20174;-64
2022/08/17 11:18:10;;;;;;;16.20;14.68;;;26.10;57.00;;;;;;5071873;28;20253;-65
2022/08/17 11:21:02;;;;;;;15.70;14.35;;;26.00;56.90;;;;;;5070922;28;20167;-65
2022/08/17 11:23:31;;;;;;;15.73;14.32;;;26.00;56.90;;;;;;5071771;28;20640;-64
2022/08/17 11:25:57;;;;;;;16.10;14.68;;;26.00;56.90;;;;;;5070942;28;20577;-64
2022/08/17 11:28:33;;;;;;;14.13;12.90;;;26.00;56.90;;;;;;5068310;28;20166;-64
2022/08/17 11:31:02;;;;;;;14.93;13.52;;;26.00;57.00;;;;;;5052676;28;20236;-64
2022/08/17 11:33:27;;;;;;;15.80;14.27;;;26.00;57.00;;;;;;5050893;28;20179;-64
2022/08/17 11:36:02;;;;;;;14.90;13.43;;;26.00;57.10;;;;;;5052868;28;20220;-64
2022/08/17 11:38:48;;;;;;;13.50;12.32;;;26.00;57.00;;;;;;5051786;28;20545;-64
2022/08/17 11:41:29;;;;;;;15.45;13.95;;;26.00;57.00;;;;;;5051802;28;20211;-64
2022/08/17 11:44:16;;;;;;;14.07;12.77;;;26.00;57.70;;;;;;5051515;28;20179;-65
2022/08/17 11:52:53;;;;;;;14.32;12.93;;;26.00;57.20;;;;;;5052435;28;20182;-61
2022/08/17 11:55:31;;;;;;;14.25;12.90;;;26.00;57.40;;;;;;5050390;28;20543;-61
2022/08/17 11:58:32;;;;;;;12.85;11.65;;;26.00;57.40;;;;;;5052160;28;20254;-61
2022/08/17 12:00:59;;;;;;;13.52;12.20;;;26.00;57.40;;;;;;5052500;28;20243;-61
2022/08/17 12:03:30;;;;;;;13.88;12.63;;;26.00;57.40;;;;;;5051665;28;20179;-61
2022/08/17 12:06:18;;;;;;;12.43;11.43;;;26.00;57.50;;;;;;5052143;28;20235;-61
2022/08/17 12:08:50;;;;;;;13.15;11.98;;;26.00;57.50;;;;;;5050217;28;20194;-61
2022/08/17 12:11:36;;;;;;;12.07;11.07;;;26.00;57.50;;;;;;5051145;28;20255;-61
2022/08/17 12:14:01;;;;;;;12.35;11.35;;;26.00;57.40;;;;;;5051203;28;20174;-61
2022/08/17 12:16:27;;;;;;;12.00;11.00;;;26.00;57.50;;;;;;5050378;28;20171;-61
2022/08/17 12:18:56;;;;;;;12.45;11.40;;;26.00;57.40;;;;;;5050667;28;20267;-61
2022/08/17 12:21:22;;;;;;;12.52;11.43;;;26.00;57.40;;;;;;5052468;28;20201;-61
2022/08/17 12:23:53;;;;;;;13.70;12.50;;;26.00;57.50;;;;;;5051414;28;20587;-61
2022/08/17 12:26:26;;;;;;;12.90;11.75;;;26.00;57.90;;;;;;5050958;28;20218;-61
2022/08/17 12:28:56;;;;;;;12.63;11.60;;;25.90;57.80;;;;;;5040851;28;20241;-61
2022/08/17 12:31:35;;;;;;;12.25;11.02;;;25.90;57.90;;;;;;5070152;28;20645;-60
2022/08/17 12:34:02;;;;;;;13.50;12.30;;;25.90;58.20;;;;;;5070582;28;20540;-60
2022/08/17 12:36:28;;;;;;;13.25;12.05;;;25.80;58.40;;;;;;5072375;28;20179;-61
2022/08/17 12:39:03;;;;;;;13.93;12.43;;;25.90;58.70;;;;;;5074925;28;20255;-61
2022/08/17 12:41:45;;;;;;;13.40;12.25;;;25.90;58.80;;;;;;5075180;28;20181;-62
2022/08/17 12:44:13;;;;;;;14.00;12.80;;;25.80;58.60;;;;;;5075527;28;20235;-61
2022/08/17 12:46:46;;;;;;;13.23;12.13;;;25.80;59.00;;;;;;5076154;28;20267;-61
2022/08/17 12:49:20;;;;;;;12.40;11.25;;;25.80;59.00;;;;;;5076298;28;20258;-61
2022/08/17 12:51:45;;;;;;;13.77;12.45;;;25.90;59.10;;;;;;5075256;28;20269;-60
2022/08/17 12:54:30;;;;;;;13.95;12.65;;;25.80;59.30;;;;;;5074707;28;20727;-61
2022/08/17 12:57:04;;;;;;;13.82;12.70;;;25.80;59.30;;;;;;5074672;28;20178;-61
2022/08/17 12:59:31;;;;;;;12.95;11.77;;;25.80;59.10;;;;;;5075163;28;20248;-61
2022/08/17 13:01:58;;;;;;;12.70;11.48;;;25.80;59.20;;;;;;5075548;28;20747;-62
2022/08/17 13:04:23;;;;;;;12.48;11.38;;;25.80;59.50;;;;;;5074547;28;20185;-62
2022/08/17 13:06:50;;;;;;;13.95;12.70;;;25.80;59.30;;;;;;5074522;28;20229;-61
2022/08/17 13:09:21;;;;;;;13.23;12.13;;;25.80;59.40;;;;;;5075333;28;20223;-61
2022/08/17 13:11:49;;;;;;;13.65;12.35;;;25.80;59.60;;;;;;5075563;28;20185;-62
2022/08/17 13:14:17;;;;;;;11.48;10.52;;;25.80;59.70;;;;;;5074928;28;20182;-62
2022/08/17 13:16:50;;;;;;;12.50;11.48;;;25.80;60.10;;;;;;5078896;28;20652;-62
2022/08/17 13:19:20;;;;;;;12.10;11.00;;;25.80;59.70;;;;;;5073675;28;20187;-62
2022/08/17 13:21:51;;;;;;;12.60;11.40;;;25.80;60.00;;;;;;5075416;28;20178;-62
2022/08/17 13:24:22;;;;;;;13.70;10.98;;;25.80;59.90;;;;;;5075391;28;20181;-62
2022/08/17 13:27:01;;;;;;;12.93;11.82;;;25.80;60.00;;;;;;5074352;28;20256;-62
2022/08/17 13:29:34;;;;;;;12.65;11.50;;;25.90;60.30;;;;;;5062616;28;20175;-62
2022/08/17 13:32:02;;;;;;;11.90;10.80;;;25.90;60.40;;;;;;5055024;28;20266;-62